עמוד ראשי
METAR-TAF:

METAR-TAF

שדות תעופה :

אסדת קידוח

Ekofisk, נורבגיה

קו רוחב: 56-33N, קו אורך: 003-15E, גובה: 3מטר

תצפית מזג אוויר נוכחית

הדו"ח נערך לפני 44דקות, בשעה 22:20 UTC
רוח 16קשר מכיוון צפון/צפון-מזרח
טמפרטורת 12 צלסיוס
לחות 71%
לחץ 1016 hPa
ראות 10 קילומטר או יותר
ללא עננים שבסיסם נמוך מ 5000 רגל או קומולונימבוס

METAR: ENLE 182220Z 03016KT CAVOK 12/07 Q1016 W11/S3

זמן: 01:04 (23:04 UTC)

תחזית

הדו"ח נערך לפני 3 שעות ו 4דקות, בשעה 20:00 UTC
תחזית בתוקף מ 18 ב 21 UTC עד 19 ב 06 UTC
רוח 15קשר מכיוון צפון/צפון-מזרח
ראות 10 קילומטר או יותר
ללא עננים שבסיסם נמוך מ 5000 רגל או קומולונימבוס
הסתברות 30%
19 ב 04 UTC עד 19 ב 06 UTC
ראות: 0500מטר
בגובה 200רגל
ערפל,

TAF: ENLE 182000Z 1821/1906 02015KT CAVOK PROB30 1904/1906 0500 FG VV002

תצפיות ותחזיות מזג אוויר לגבי יותר מ- 4,000 שדות תעופה ברחבי העולם. דוחות METAR ו- TAF.

התחנות הזמינות מסומנות בנקודות צהובות ואדומות על גבי המפה.

העבר את העכבר לנקודה הצבעונית על מנת לראות את שם התחנה.

לאחר מכן, לחץ כדי לראות את תוכן ואת תחזיות מזג האוויר.

כדי לשנות את המפה: לחץ על הכפתורים הירוקים עם הפלוס השחור כדי להתקרב; על הכפתור הירוק עם המקף כדי להתרחק; או בחיצים הירוקים למפות סמוכות.


METAR-TAF: